Percilla, Texas
Current Conditions -  °F | °C
As of 9:35 PM on Saturday 22 Nov 2014 (Local Time) from KDKR Reporting Station
Haze Haze  
Wind Chill: 66°   Ceiling: 1500
Heat Index: 66°   Visibility: 3mi
Dew Point: 66°   Wind: 3mph
Humidity: 100%   Direction: 120°ESE
Pressure: 29.82"   Gusts: NA
Location:  31.4982°N, 95.4177°W
Report Text: KDKR 230335Z AUTO 12003KT 3SM BR FEW008 BKN015 BKN028 19/19 A2982 RMK AO2 LTG DSNT W
Loading
Personal Weather Stations






























Interactive Weather Map New forecast layout! Learn more

10-Day Weather Forecast

Advertisements
Track Severe Weather on mobile